createdAt,value
2017-12-08T00:02:21.672Z,33.87
2017-12-08T00:04:49.507Z,36.80
2017-12-08T00:07:17.367Z,33.20
2017-12-08T00:09:45.289Z,36.00
2017-12-08T00:12:13.250Z,35.87
2017-12-08T00:14:41.108Z,34.53
2017-12-08T00:17:09.016Z,31.90
2017-12-08T00:19:36.871Z,35.40
2017-12-08T00:22:04.756Z,38.23
2017-12-08T00:24:32.648Z,35.33
2017-12-08T00:27:00.536Z,37.63
2017-12-08T00:29:28.408Z,37.57
2017-12-08T00:31:56.278Z,37.03
2017-12-08T00:34:24.196Z,39.60
2017-12-08T00:36:52.171Z,35.57
2017-12-08T00:39:20.041Z,31.30
2017-12-08T00:41:47.900Z,27.70
2017-12-08T00:44:15.745Z,25.77
2017-12-08T00:46:43.665Z,32.67
2017-12-08T00:49:11.528Z,27.67
2017-12-08T00:54:13.955Z,26.87
2017-12-08T00:56:41.818Z,30.00
2017-12-08T00:59:09.676Z,27.53
2017-12-08T01:01:37.564Z,27.43
2017-12-08T01:04:05.417Z,31.40
2017-12-08T01:06:33.334Z,28.10
2017-12-08T01:09:01.252Z,31.33
2017-12-08T01:11:29.175Z,26.27
2017-12-08T01:13:57.097Z,31.10
2017-12-08T01:16:24.960Z,26.33
2017-12-08T01:18:52.804Z,31.70
2017-12-08T01:21:20.719Z,34.27
2017-12-08T01:23:48.596Z,32.83
2017-12-08T01:26:16.619Z,32.83
2017-12-08T01:28:44.457Z,29.03
2017-12-08T01:31:12.398Z,31.70
2017-12-08T01:33:40.695Z,29.07
2017-12-08T01:36:08.684Z,31.80
2017-12-08T01:38:36.717Z,31.03
2017-12-08T01:41:04.590Z,30.03
2017-12-08T01:43:32.603Z,29.40
2017-12-08T01:46:00.724Z,31.20
2017-12-08T01:48:28.715Z,29.57
2017-12-08T01:50:56.620Z,29.00
2017-12-08T01:53:24.557Z,25.83
2017-12-08T01:55:52.418Z,25.83
2017-12-08T01:58:20.287Z,32.93
2017-12-08T02:00:48.173Z,27.70
2017-12-08T02:03:16.023Z,24.07
2017-12-08T02:05:43.886Z,25.53
2017-12-08T02:08:11.805Z,25.30
2017-12-08T02:10:39.693Z,23.47
2017-12-08T02:13:07.661Z,24.90
2017-12-08T02:15:35.592Z,23.47
2017-12-08T02:18:03.524Z,23.20
2017-12-08T02:20:31.459Z,24.03
2017-12-08T02:22:59.339Z,20.63
2017-12-08T02:25:27.241Z,25.03
2017-12-08T02:27:55.144Z,23.07
2017-12-08T02:30:23.035Z,24.70
2017-12-08T02:32:50.881Z,21.13
2017-12-08T02:35:18.748Z,22.23
2017-12-08T02:37:46.673Z,19.80
2017-12-08T02:40:14.552Z,21.27
2017-12-08T02:42:42.432Z,19.53
2017-12-08T02:45:10.746Z,21.57
2017-12-08T02:47:38.659Z,17.90
2017-12-08T02:50:06.552Z,16.20
2017-12-08T02:52:34.468Z,17.13
2017-12-08T02:55:02.360Z,20.10
2017-12-08T02:57:30.230Z,18.67
2017-12-08T02:59:58.175Z,17.67
2017-12-08T03:02:26.022Z,17.03
2017-12-08T03:04:53.894Z,17.17
2017-12-08T03:07:21.800Z,18.90
2017-12-08T03:09:49.690Z,16.80
2017-12-08T03:12:17.548Z,16.00
2017-12-08T03:14:45.436Z,18.07
2017-12-08T03:17:13.300Z,16.20
2017-12-08T03:19:41.170Z,15.60
2017-12-08T03:22:09.097Z,17.10
2017-12-08T03:24:36.973Z,14.80
2017-12-08T03:27:04.828Z,14.53
2017-12-08T03:29:32.700Z,15.10
2017-12-08T03:32:00.583Z,14.23
2017-12-08T03:34:28.466Z,15.50
2017-12-08T03:36:56.592Z,15.00
2017-12-08T03:39:24.539Z,14.10
2017-12-08T03:41:52.484Z,16.57
2017-12-08T03:44:20.396Z,17.03
2017-12-08T03:46:48.255Z,13.17
2017-12-08T03:49:16.356Z,13.67
2017-12-08T03:51:44.280Z,14.17
2017-12-08T03:54:12.132Z,15.20
2017-12-08T03:56:39.992Z,15.20
2017-12-08T03:59:07.883Z,12.60
2017-12-08T04:01:35.765Z,13.53
2017-12-08T04:04:03.652Z,14.87
2017-12-08T04:06:31.552Z,14.47
2017-12-08T04:08:59.423Z,11.00
2017-12-08T04:11:27.299Z,14.93
2017-12-08T04:13:55.212Z,14.20
2017-12-08T04:16:23.035Z,18.83
2017-12-08T04:18:50.892Z,15.27
2017-12-08T04:21:18.785Z,15.80
2017-12-08T04:23:46.764Z,12.70
2017-12-08T04:26:14.685Z,11.93
2017-12-08T04:28:42.574Z,11.70
2017-12-08T04:31:10.455Z,12.77
2017-12-08T04:33:38.433Z,14.47
2017-12-08T04:36:06.304Z,11.50
2017-12-08T04:38:34.172Z,12.70
2017-12-08T04:41:02.079Z,12.00
2017-12-08T04:43:29.995Z,12.80
2017-12-08T04:45:57.920Z,9.83
2017-12-08T04:48:25.808Z,13.23
2017-12-08T04:50:53.735Z,13.10
2017-12-08T04:53:21.609Z,15.37
2017-12-08T04:55:49.480Z,12.77
2017-12-08T04:58:17.445Z,13.67
2017-12-08T05:00:45.311Z,14.77
2017-12-08T05:03:13.315Z,12.20
2017-12-08T05:05:41.214Z,10.77
2017-12-08T05:08:09.084Z,19.20
2017-12-08T05:10:36.937Z,10.20
2017-12-08T05:13:04.819Z,9.70
2017-12-08T05:15:32.701Z,17.43
2017-12-08T05:18:00.676Z,10.73
2017-12-08T05:20:28.629Z,13.90
2017-12-08T05:22:56.497Z,12.60
2017-12-08T05:25:24.374Z,18.17
2017-12-08T05:27:52.291Z,14.60
2017-12-08T05:30:20.175Z,10.53
2017-12-08T05:32:48.064Z,13.17
2017-12-08T05:35:15.951Z,10.50
2017-12-08T05:37:43.808Z,16.00
2017-12-08T05:40:11.670Z,9.70
2017-12-08T05:42:39.637Z,13.90
2017-12-08T05:45:07.621Z,11.20
2017-12-08T05:47:35.477Z,17.03
2017-12-08T05:50:03.345Z,14.87
2017-12-08T05:52:31.201Z,14.00
2017-12-08T05:54:59.091Z,25.17
2017-12-08T05:57:27.041Z,11.70
2017-12-08T05:59:54.896Z,13.67
2017-12-08T06:02:22.772Z,16.47
2017-12-08T06:04:50.646Z,16.73
2017-12-08T06:07:18.528Z,21.10
2017-12-08T06:09:46.538Z,17.53
2017-12-08T06:12:14.513Z,12.40
2017-12-08T06:14:42.502Z,15.97
2017-12-08T06:17:10.377Z,16.90
2017-12-08T06:19:38.284Z,13.57
2017-12-08T06:22:06.181Z,17.33
2017-12-08T06:24:34.049Z,19.80
2017-12-08T06:27:01.959Z,18.10
2017-12-08T06:29:29.908Z,16.40
2017-12-08T06:31:57.794Z,19.50
2017-12-08T06:34:25.686Z,13.70
2017-12-08T06:36:53.568Z,19.23
2017-12-08T06:39:21.519Z,17.53
2017-12-08T06:41:49.505Z,19.40
2017-12-08T06:44:17.397Z,13.80
2017-12-08T06:46:45.285Z,14.33
2017-12-08T06:49:13.202Z,13.03
2017-12-08T06:51:41.125Z,18.37
2017-12-08T06:54:08.985Z,14.10
2017-12-08T06:56:36.936Z,12.23
2017-12-08T06:59:04.816Z,16.70
2017-12-08T07:01:32.673Z,23.13
2017-12-08T07:04:00.563Z,14.97
2017-12-08T07:06:28.415Z,18.93
2017-12-08T07:08:56.249Z,16.10
2017-12-08T07:11:24.180Z,15.17
2017-12-08T07:13:52.046Z,20.43
2017-12-08T07:16:19.961Z,19.93
2017-12-08T07:18:47.866Z,12.40
2017-12-08T07:21:15.792Z,24.93
2017-12-08T07:23:44.563Z,17.97
2017-12-08T07:26:12.476Z,21.23
2017-12-08T07:28:40.329Z,21.63
2017-12-08T07:31:08.197Z,21.10
2017-12-08T07:33:36.064Z,22.17
2017-12-08T07:36:03.921Z,22.30
2017-12-08T07:38:31.779Z,21.93
2017-12-08T07:40:59.681Z,19.60
2017-12-08T07:43:27.550Z,21.43
2017-12-08T07:45:55.446Z,23.13
2017-12-08T07:48:23.375Z,13.03
2017-12-08T07:50:51.241Z,21.00
2017-12-08T07:53:19.125Z,25.03
2017-12-08T07:55:47.076Z,22.63
2017-12-08T07:58:14.962Z,17.20
2017-12-08T08:00:42.851Z,22.27
2017-12-08T08:03:10.722Z,31.10
2017-12-08T08:05:38.571Z,24.10
2017-12-08T08:08:06.441Z,22.03
2017-12-08T08:10:34.360Z,22.43
2017-12-08T08:13:02.279Z,19.90
2017-12-08T08:15:30.136Z,25.63
2017-12-08T08:17:58.036Z,18.10
2017-12-08T08:20:25.949Z,29.40
2017-12-08T08:22:54.218Z,30.30
2017-12-08T08:25:22.104Z,25.77
2017-12-08T08:27:49.983Z,21.80
2017-12-08T08:30:17.873Z,19.33
2017-12-08T08:32:45.737Z,28.20
2017-12-08T08:35:13.708Z,19.73
2017-12-08T08:37:41.567Z,22.17
2017-12-08T08:40:09.657Z,23.33
2017-12-08T08:42:37.568Z,28.23
2017-12-08T08:45:05.494Z,24.60
2017-12-08T08:47:33.400Z,14.33
2017-12-08T08:50:01.252Z,17.93
2017-12-08T08:52:29.121Z,14.07
2017-12-08T08:54:57.025Z,15.07
2017-12-08T08:57:24.953Z,19.53
2017-12-08T08:59:52.946Z,19.00
2017-12-08T09:02:20.821Z,15.70
2017-12-08T09:04:48.682Z,15.60
2017-12-08T09:07:16.545Z,17.23
2017-12-08T09:09:44.429Z,17.20
2017-12-08T09:12:12.267Z,10.47
2017-12-08T09:14:40.129Z,13.17
2017-12-08T09:17:08.032Z,22.57
2017-12-08T09:19:35.925Z,18.20
2017-12-08T09:22:03.792Z,13.03
2017-12-08T09:24:31.676Z,16.30
2017-12-08T09:26:59.572Z,16.73
2017-12-08T09:29:27.441Z,14.23
2017-12-08T09:31:55.372Z,16.70
2017-12-08T09:34:23.250Z,14.03
2017-12-08T09:36:51.121Z,13.40
2017-12-08T09:39:19.107Z,10.00
2017-12-08T09:41:46.977Z,19.37
2017-12-08T09:44:14.829Z,17.00
2017-12-08T09:46:42.769Z,15.13
2017-12-08T09:49:10.697Z,17.20
2017-12-08T09:51:38.596Z,15.17
2017-12-08T09:54:06.487Z,18.27
2017-12-08T09:56:34.365Z,15.50
2017-12-08T09:59:02.245Z,14.60
2017-12-08T10:01:30.114Z,12.87
2017-12-08T10:03:57.976Z,15.93
2017-12-08T10:06:25.873Z,16.60
2017-12-08T10:08:53.911Z,12.93
2017-12-08T10:11:22.228Z,14.50
2017-12-08T10:13:50.782Z,10.37
2017-12-08T10:16:19.101Z,11.43
2017-12-08T10:18:47.509Z,7.00
2017-12-08T10:21:15.759Z,9.40
2017-12-08T10:23:43.674Z,11.10
2017-12-08T10:26:11.539Z,7.70
2017-12-08T10:28:39.392Z,3.23
2017-12-08T10:31:07.273Z,4.17
2017-12-08T10:33:35.140Z,4.53
2017-12-08T10:36:03.076Z,8.30
2017-12-08T10:38:30.987Z,7.50
2017-12-08T10:40:59.895Z,8.57
2017-12-08T10:43:27.732Z,11.43
2017-12-08T10:45:55.608Z,5.80
2017-12-08T10:48:23.464Z,7.60
2017-12-08T10:50:51.356Z,9.13
2017-12-08T10:53:19.232Z,8.93
2017-12-08T10:55:47.080Z,11.80
2017-12-08T10:58:14.937Z,7.27
2017-12-08T11:00:43.714Z,9.80
2017-12-08T11:03:11.623Z,9.93
2017-12-08T11:05:39.475Z,5.63
2017-12-08T11:08:07.365Z,7.90
2017-12-08T11:10:35.241Z,12.83
2017-12-08T11:13:03.116Z,8.60
2017-12-08T11:15:31.012Z,5.70
2017-12-08T11:17:58.880Z,14.40
2017-12-08T11:20:26.732Z,6.73
2017-12-08T11:22:54.661Z,9.43
2017-12-08T11:25:22.511Z,7.90
2017-12-08T11:27:50.374Z,9.00
2017-12-08T11:30:18.252Z,9.40
2017-12-08T11:32:46.176Z,7.07
2017-12-08T11:35:14.047Z,10.77
2017-12-08T11:37:42.039Z,10.30
2017-12-08T11:40:09.980Z,10.43
2017-12-08T11:42:37.846Z,8.70
2017-12-08T11:45:05.736Z,10.87
2017-12-08T11:47:33.629Z,10.80
2017-12-08T11:50:01.550Z,8.30
2017-12-08T11:52:29.528Z,11.13
2017-12-08T11:54:57.425Z,11.97
2017-12-08T11:57:25.300Z,12.93
2017-12-08T11:59:53.181Z,12.30
2017-12-08T12:02:21.016Z,8.53
2017-12-08T12:04:48.877Z,6.50
2017-12-08T12:07:16.768Z,8.27
2017-12-08T12:09:44.659Z,11.70
2017-12-08T12:12:12.557Z,6.47
2017-12-08T12:14:40.464Z,9.33
2017-12-08T12:17:08.425Z,8.57
2017-12-08T12:19:36.307Z,5.40
2017-12-08T12:22:04.226Z,8.80
2017-12-08T12:24:32.060Z,7.73
2017-12-08T12:26:59.936Z,7.27
2017-12-08T12:29:27.806Z,11.77
2017-12-08T12:31:55.660Z,11.37
2017-12-08T12:34:23.624Z,11.80
2017-12-08T12:36:51.508Z,7.87
2017-12-08T12:39:19.350Z,8.43
2017-12-08T12:41:47.180Z,9.00
2017-12-08T12:44:15.100Z,7.23
2017-12-08T12:46:42.982Z,11.43
2017-12-08T12:49:11.798Z,7.57
2017-12-08T12:51:39.681Z,3.60
2017-12-08T12:54:07.592Z,10.10
2017-12-08T12:56:35.487Z,8.17
2017-12-08T12:59:03.381Z,13.13
2017-12-08T13:01:31.258Z,11.23
2017-12-08T13:03:59.209Z,10.50
2017-12-08T13:06:27.095Z,11.90
2017-12-08T13:08:54.961Z,7.57
2017-12-08T13:11:22.826Z,7.93
2017-12-08T13:13:50.717Z,12.47
2017-12-08T13:16:18.570Z,7.27
2017-12-08T13:18:46.440Z,11.03
2017-12-08T13:21:14.351Z,12.43
2017-12-08T13:23:42.270Z,9.50
2017-12-08T13:26:10.153Z,9.13
2017-12-08T13:28:38.044Z,11.87
2017-12-08T13:31:05.928Z,10.10
2017-12-08T13:33:33.798Z,4.33
2017-12-08T13:36:02.272Z,14.23
2017-12-08T13:38:30.115Z,15.37
2017-12-08T13:40:58.977Z,6.47
2017-12-08T13:43:26.865Z,17.67
2017-12-08T13:45:54.760Z,7.07
2017-12-08T13:48:22.626Z,17.57
2017-12-08T13:50:50.587Z,10.50
2017-12-08T13:53:24.665Z,13.50
2017-12-08T13:55:58.704Z,15.03
2017-12-08T13:58:26.577Z,13.30
2017-12-08T14:00:55.529Z,7.40
2017-12-08T14:03:23.461Z,11.63
2017-12-08T14:05:51.350Z,12.90
2017-12-08T14:08:19.246Z,13.30
2017-12-08T14:10:47.128Z,10.57
2017-12-08T14:13:15.009Z,13.53
2017-12-08T14:15:42.909Z,13.57
2017-12-08T14:18:10.857Z,18.30
2017-12-08T14:20:38.838Z,14.60
2017-12-08T14:23:06.744Z,12.70
2017-12-08T14:25:34.620Z,12.33
2017-12-08T14:28:02.484Z,12.37
2017-12-08T14:30:30.402Z,9.43
2017-12-08T14:32:58.257Z,8.63
2017-12-08T14:35:26.179Z,8.33
2017-12-08T14:37:54.066Z,13.50
2017-12-08T14:40:21.983Z,12.80
2017-12-08T14:42:49.834Z,11.83
2017-12-08T14:45:17.727Z,13.07
2017-12-08T14:47:45.621Z,14.07
2017-12-08T14:50:13.489Z,10.37
2017-12-08T14:52:41.362Z,14.60
2017-12-08T14:55:09.360Z,16.37
2017-12-08T14:57:37.262Z,7.53
2017-12-08T15:00:05.984Z,4.83
2017-12-08T15:02:33.865Z,14.70
2017-12-08T15:05:01.729Z,13.70
2017-12-08T15:07:29.585Z,9.50
2017-12-08T15:09:57.494Z,15.47
2017-12-08T15:12:25.366Z,9.13
2017-12-08T15:14:53.256Z,13.90
2017-12-08T15:17:21.141Z,11.73
2017-12-08T15:19:48.999Z,9.00
2017-12-08T15:22:16.861Z,6.93
2017-12-08T15:24:44.754Z,14.53
2017-12-08T15:27:12.872Z,11.40
2017-12-08T15:29:40.897Z,8.97
2017-12-08T15:32:08.885Z,12.07
2017-12-08T15:34:36.741Z,13.10
2017-12-08T15:37:04.583Z,7.33
2017-12-08T15:39:32.469Z,13.90
2017-12-08T15:42:00.335Z,10.37
2017-12-08T15:44:28.215Z,17.13
2017-12-08T15:46:56.115Z,15.00
2017-12-08T15:49:24.020Z,7.60
2017-12-08T15:51:51.894Z,10.80
2017-12-08T15:54:19.845Z,14.67
2017-12-08T15:56:47.716Z,10.03
2017-12-08T15:59:15.668Z,22.60
2017-12-08T16:01:43.569Z,9.03
2017-12-08T16:04:11.445Z,15.70
2017-12-08T16:06:39.420Z,7.90
2017-12-08T16:09:07.404Z,5.77
2017-12-08T16:11:35.325Z,5.53
2017-12-08T16:14:03.169Z,8.63
2017-12-08T16:16:31.160Z,10.73
2017-12-08T16:18:59.028Z,8.00
2017-12-08T16:21:26.892Z,8.33
2017-12-08T16:23:54.821Z,9.90
2017-12-08T16:26:22.705Z,9.63
2017-12-08T16:28:50.704Z,10.40
2017-12-08T16:31:18.611Z,17.33
2017-12-08T16:33:46.521Z,14.63
2017-12-08T16:36:14.426Z,15.40
2017-12-08T16:38:42.325Z,9.83
2017-12-08T16:41:10.173Z,10.90
2017-12-08T16:43:39.104Z,9.33
2017-12-08T16:46:07.011Z,10.73
2017-12-08T16:48:34.841Z,9.67
2017-12-08T16:51:02.742Z,10.80
2017-12-08T16:53:30.629Z,9.00
2017-12-08T16:55:58.473Z,8.20
2017-12-08T16:58:26.362Z,17.53
2017-12-08T17:00:54.269Z,11.03
2017-12-08T17:03:22.141Z,9.67
2017-12-08T17:05:50.308Z,10.47
2017-12-08T17:08:18.176Z,10.67
2017-12-08T17:10:46.049Z,17.50
2017-12-08T17:13:14.488Z,7.53
2017-12-08T17:15:42.370Z,12.30
2017-12-08T17:18:10.285Z,15.17
2017-12-08T17:20:38.171Z,7.80
2017-12-08T17:23:06.088Z,9.10
2017-12-08T17:25:34.024Z,9.43
2017-12-08T17:28:01.872Z,11.63
2017-12-08T17:30:29.790Z,7.27
2017-12-08T17:32:57.692Z,9.43
2017-12-08T17:35:26.074Z,10.97
2017-12-08T17:37:53.991Z,5.47
2017-12-08T17:40:21.868Z,12.70
2017-12-08T17:42:49.828Z,8.70
2017-12-08T17:45:17.745Z,8.67
2017-12-08T17:47:45.621Z,14.03
2017-12-08T17:50:13.522Z,7.73
2017-12-08T17:52:41.459Z,8.57
2017-12-08T17:55:09.325Z,8.90
2017-12-08T17:57:37.273Z,9.57
2017-12-08T18:00:05.197Z,8.53
2017-12-08T18:02:33.154Z,10.37
2017-12-08T18:05:01.087Z,10.97
2017-12-08T18:07:28.979Z,12.00
2017-12-08T18:09:56.829Z,12.83
2017-12-08T18:12:24.690Z,16.73
2017-12-08T18:14:52.664Z,10.00
2017-12-08T18:17:20.561Z,10.30
2017-12-08T18:19:48.425Z,11.37
2017-12-08T18:22:16.324Z,11.60
2017-12-08T18:24:44.231Z,11.00
2017-12-08T18:27:12.123Z,11.33
2017-12-08T18:29:40.065Z,9.63
2017-12-08T18:32:14.317Z,13.17
2017-12-08T18:34:42.418Z,11.03
2017-12-08T18:37:10.401Z,11.90
2017-12-08T18:39:38.296Z,12.50
2017-12-08T18:42:06.270Z,11.30
2017-12-08T18:44:34.401Z,10.80
2017-12-08T18:47:02.258Z,10.57
2017-12-08T18:49:30.160Z,8.87
2017-12-08T18:51:58.080Z,16.10
2017-12-08T18:54:25.974Z,16.40
2017-12-08T18:56:53.960Z,18.83
2017-12-08T18:59:21.810Z,17.23
2017-12-08T19:01:49.717Z,37.50
2017-12-08T19:04:17.618Z,14.97
2017-12-08T19:06:45.500Z,19.77
2017-12-08T19:09:13.376Z,21.33
2017-12-08T19:11:41.293Z,12.47
2017-12-08T19:14:09.314Z,19.37
2017-12-08T19:16:37.315Z,13.00
2017-12-08T19:19:05.232Z,14.50
2017-12-08T19:21:33.109Z,19.07
2017-12-08T19:24:00.984Z,15.57
2017-12-08T19:26:28.873Z,22.90
2017-12-08T19:28:56.756Z,16.23
2017-12-08T19:31:24.617Z,21.63
2017-12-08T19:33:52.514Z,27.10
2017-12-08T19:36:20.372Z,20.10
2017-12-08T19:38:48.270Z,19.47
2017-12-08T19:41:16.185Z,29.43
2017-12-08T19:43:44.068Z,30.70
2017-12-08T19:46:11.934Z,14.50
2017-12-08T19:48:40.773Z,18.07
2017-12-08T19:51:08.645Z,17.10
2017-12-08T19:53:37.535Z,16.03
2017-12-08T19:56:05.457Z,19.70
2017-12-08T19:58:33.306Z,17.07
2017-12-08T20:01:01.151Z,17.40
2017-12-08T20:03:29.075Z,14.53
2017-12-08T20:05:57.025Z,16.07
2017-12-08T20:08:24.875Z,13.67
2017-12-08T20:10:52.767Z,16.17
2017-12-08T20:13:20.633Z,16.33
2017-12-08T20:15:48.498Z,17.40
2017-12-08T20:18:16.401Z,18.30
2017-12-08T20:20:44.233Z,15.67
2017-12-08T20:23:12.105Z,18.60
2017-12-08T20:25:44.045Z,15.97
2017-12-08T20:28:11.928Z,14.50
2017-12-08T20:30:39.872Z,19.70
2017-12-08T20:33:07.748Z,12.30
2017-12-08T20:35:35.653Z,18.47
2017-12-08T20:38:03.501Z,11.40
2017-12-08T20:40:32.077Z,15.60
2017-12-08T20:42:59.940Z,13.90
2017-12-08T20:45:27.841Z,10.10
2017-12-08T20:47:55.708Z,13.70
2017-12-08T20:50:23.577Z,14.80
2017-12-08T20:52:51.472Z,17.80
2017-12-08T20:55:19.415Z,28.57
2017-12-08T20:57:47.269Z,38.60
2017-12-08T21:00:15.145Z,35.00
2017-12-08T21:02:43.057Z,13.97
2017-12-08T21:05:10.925Z,15.33
2017-12-08T21:07:38.855Z,16.97
2017-12-08T21:10:07.073Z,16.60
2017-12-08T21:12:35.390Z,12.33
2017-12-08T21:15:03.402Z,13.63
2017-12-08T21:17:31.745Z,13.70
2017-12-08T21:20:01.024Z,18.17
2017-12-08T21:22:29.239Z,17.43
2017-12-08T21:24:57.200Z,15.40
2017-12-08T21:27:25.053Z,23.77
2017-12-08T21:29:52.905Z,21.33
2017-12-08T21:32:20.805Z,14.47
2017-12-08T21:34:48.680Z,10.83
2017-12-08T21:37:16.560Z,16.90
2017-12-08T21:39:44.447Z,11.57
2017-12-08T21:42:12.317Z,12.53
2017-12-08T21:44:40.186Z,16.70
2017-12-08T21:47:08.083Z,10.10
2017-12-08T21:49:36.060Z,14.30
2017-12-08T21:52:03.925Z,14.67
2017-12-08T21:54:31.799Z,11.43
2017-12-08T21:56:59.642Z,15.60
2017-12-08T21:59:27.490Z,16.50
2017-12-08T22:01:55.438Z,16.00
2017-12-08T22:04:23.421Z,15.43
2017-12-08T22:06:51.347Z,19.47
2017-12-08T22:09:19.257Z,15.43
2017-12-08T22:11:47.130Z,17.40
2017-12-08T22:14:14.986Z,12.60
2017-12-08T22:16:42.900Z,11.77
2017-12-08T22:19:10.774Z,12.50
2017-12-08T22:21:38.856Z,13.50
2017-12-08T22:24:06.821Z,12.67
2017-12-08T22:26:34.752Z,15.13
2017-12-08T22:29:02.601Z,13.80
2017-12-08T22:31:30.487Z,20.60
2017-12-08T22:33:58.441Z,11.10
2017-12-08T22:36:26.376Z,20.03
2017-12-08T22:38:54.244Z,10.70
2017-12-08T22:41:22.174Z,19.40
2017-12-08T22:43:50.033Z,15.23
2017-12-08T22:46:18.043Z,15.07
2017-12-08T22:48:45.966Z,14.40
2017-12-08T22:51:13.988Z,15.47
2017-12-08T22:53:41.900Z,12.87
2017-12-08T22:56:09.925Z,13.63
2017-12-08T22:58:37.874Z,20.90
2017-12-08T23:01:05.871Z,15.17
2017-12-08T23:03:33.729Z,18.50
2017-12-08T23:06:01.600Z,16.37
2017-12-08T23:08:29.483Z,14.93
2017-12-08T23:10:57.350Z,18.70
2017-12-08T23:13:25.198Z,15.33
2017-12-08T23:15:53.113Z,18.63
2017-12-08T23:18:20.969Z,13.80
2017-12-08T23:20:48.826Z,17.50
2017-12-08T23:23:16.831Z,21.43
2017-12-08T23:25:44.679Z,19.73
2017-12-08T23:28:12.520Z,23.20
2017-12-08T23:30:40.467Z,18.80
2017-12-08T23:33:08.357Z,16.87
2017-12-08T23:35:36.361Z,18.33
2017-12-08T23:38:04.265Z,19.50
2017-12-08T23:40:32.163Z,17.07
2017-12-08T23:43:00.006Z,18.83
2017-12-08T23:45:27.885Z,21.27
2017-12-08T23:47:55.824Z,25.67
2017-12-08T23:50:23.673Z,17.37
2017-12-08T23:52:51.560Z,27.93
2017-12-08T23:55:19.425Z,20.73
2017-12-08T23:57:47.303Z,17.60
